Time;durP1;ratioP1;P1;durP2;ratioP2;P2;SDS_P1;SDS_P2;PMS_P1;PMS_P2;Temp;Humidity;BMP_temperature;BMP_pressure;BME280_temperature;BME280_humidity;BME280_pressure;Samples;Min_cycle;Max_cycle;Signal;HPM_P1;HPM_P2
2022/05/26 00:00:13;;;;;;;2.95;0.50;;;;;;;;;;515905;28;891;-84
2022/05/26 00:00:28;;;;;;;2.60;0.50;;;;;;;;;;517052;28;1209;-84
2022/05/26 00:00:44;;;;;;;1.67;0.43;;;;;;;;;;517925;28;1173;-84
2022/05/26 00:01:04;;;;;;;0.97;0.43;;;;;;;;;;518123;28;869;-83
2022/05/26 00:01:20;;;;;;;0.87;0.47;;;;;;;;;;516077;28;1467;-84
2022/05/26 00:01:36;;;;;;;1.40;0.55;;;;;;;;;;517054;28;874;-83
2022/05/26 00:01:52;;;;;;;2.30;0.60;;;;;;;;;;515750;28;1189;-83
2022/05/26 00:02:07;;;;;;;3.05;0.50;;;;;;;;;;515954;28;1186;-83
2022/05/26 00:02:23;;;;;;;1.73;0.50;;;;;;;;;;514917;28;798;-83
2022/05/26 00:02:38;;;;;;;0.95;0.45;;;;;;;;;;512929;28;1183;-83
2022/05/26 00:02:54;;;;;;;1.40;0.40;;;;;;;;;;511781;29;1297;-83
2022/05/26 00:03:09;;;;;;;1.90;0.50;;;;;;;;;;512206;28;1506;-83
2022/05/26 00:03:24;;;;;;;2.60;0.60;;;;;;;;;;514421;28;1310;-83
2022/05/26 00:03:42;;;;;;;2.65;0.50;;;;;;;;;;514079;28;1283;-83
2022/05/26 00:03:58;;;;;;;1.73;0.50;;;;;;;;;;514568;28;894;-84
2022/05/26 00:04:13;;;;;;;1.58;0.45;;;;;;;;;;515882;28;1376;-84
2022/05/26 00:04:29;;;;;;;1.52;0.40;;;;;;;;;;515842;28;964;-83
2022/05/26 00:04:45;;;;;;;2.10;0.50;;;;;;;;;;516141;28;1028;-83
2022/05/26 00:05:02;;;;;;;1.93;0.50;;;;;;;;;;516409;28;949;-83
2022/05/26 00:05:18;;;;;;;1.48;0.50;;;;;;;;;;514949;28;1612;-83
2022/05/26 00:05:34;;;;;;;2.95;0.60;;;;;;;;;;514988;28;1201;-83
2022/05/26 00:05:49;;;;;;;3.03;0.60;;;;;;;;;;514719;28;1500;-83
2022/05/26 00:06:07;;;;;;;1.65;0.50;;;;;;;;;;516391;28;1275;-83
2022/05/26 00:06:24;;;;;;;1.88;0.50;;;;;;;;;;516254;28;1507;-83
2022/05/26 00:06:39;;;;;;;2.10;0.45;;;;;;;;;;513751;28;1303;-83
2022/05/26 00:06:55;;;;;;;2.30;0.53;;;;;;;;;;511777;29;1205;-83
2022/05/26 00:07:13;;;;;;;2.72;0.68;;;;;;;;;;513837;28;1400;-83
2022/05/26 00:07:28;;;;;;;3.28;0.50;;;;;;;;;;509608;29;1336;-83
2022/05/26 00:07:44;;;;;;;2.47;0.50;;;;;;;;;;511898;29;1162;-83
2022/05/26 00:07:59;;;;;;;1.75;0.57;;;;;;;;;;516050;28;1183;-83
2022/05/26 00:08:14;;;;;;;1.70;0.50;;;;;;;;;;514163;28;1241;-83
2022/05/26 00:08:30;;;;;;;1.73;0.50;;;;;;;;;;515053;28;1726;-83
2022/05/26 00:08:45;;;;;;;2.03;0.40;;;;;;;;;;514116;28;1236;-83
2022/05/26 00:09:01;;;;;;;2.13;0.40;;;;;;;;;;518247;28;1204;-83
2022/05/26 00:09:16;;;;;;;1.33;0.40;;;;;;;;;;516067;28;1152;-83
2022/05/26 00:09:32;;;;;;;0.98;0.47;;;;;;;;;;516012;28;1208;-83
2022/05/26 00:09:47;;;;;;;2.00;0.50;;;;;;;;;;516104;28;1177;-83
2022/05/26 00:10:03;;;;;;;3.23;0.50;;;;;;;;;;516176;28;1294;-83
2022/05/26 00:10:20;;;;;;;2.65;0.50;;;;;;;;;;518165;28;1205;-83
2022/05/26 00:10:35;;;;;;;1.42;0.50;;;;;;;;;;516078;28;1451;-83
2022/05/26 00:10:51;;;;;;;2.90;0.55;;;;;;;;;;513950;28;1244;-83
2022/05/26 00:11:12;;;;;;;2.67;0.50;;;;;;;;;;516045;28;1173;-83
2022/05/26 00:11:31;;;;;;;1.10;0.40;;;;;;;;;;515901;28;1216;-83
2022/05/26 00:11:46;;;;;;;2.00;0.50;;;;;;;;;;513743;28;1237;-83
2022/05/26 00:12:02;;;;;;;2.17;0.40;;;;;;;;;;513973;28;921;-83
2022/05/26 00:12:19;;;;;;;1.92;0.60;;;;;;;;;;513922;28;1481;-83
2022/05/26 00:12:34;;;;;;;1.55;0.50;;;;;;;;;;516004;28;1359;-83
2022/05/26 00:12:50;;;;;;;2.13;0.45;;;;;;;;;;515863;28;1343;-83
2022/05/26 00:13:05;;;;;;;2.47;0.50;;;;;;;;;;515860;28;1262;-83
2022/05/26 00:13:21;;;;;;;1.60;0.40;;;;;;;;;;516178;28;1402;-83
2022/05/26 00:13:38;;;;;;;1.08;0.40;;;;;;;;;;514590;28;1403;-83
2022/05/26 00:13:55;;;;;;;1.98;0.47;;;;;;;;;;516184;28;1360;-83
2022/05/26 00:14:11;;;;;;;2.78;0.50;;;;;;;;;;516202;28;1249;-83
2022/05/26 00:14:26;;;;;;;2.83;0.60;;;;;;;;;;518024;28;1157;-83
2022/05/26 00:14:43;;;;;;;2.38;0.50;;;;;;;;;;519306;28;881;-83
2022/05/26 00:14:58;;;;;;;1.88;0.40;;;;;;;;;;519427;28;1406;-83
2022/05/26 00:15:14;;;;;;;1.52;0.40;;;;;;;;;;520227;28;1457;-83
2022/05/26 00:15:31;;;;;;;1.63;0.40;;;;;;;;;;518054;28;1171;-83
2022/05/26 00:15:47;;;;;;;1.73;0.50;;;;;;;;;;517836;28;1327;-83
2022/05/26 00:16:03;;;;;;;2.03;0.57;;;;;;;;;;515735;28;1203;-83
2022/05/26 00:16:19;;;;;;;2.20;0.50;;;;;;;;;;514752;28;1176;-83
2022/05/26 00:16:38;;;;;;;2.60;0.52;;;;;;;;;;515947;28;810;-83
2022/05/26 00:16:54;;;;;;;2.42;0.60;;;;;;;;;;514743;28;1135;-83
2022/05/26 00:17:09;;;;;;;1.83;0.53;;;;;;;;;;515901;28;1192;-83
2022/05/26 00:17:25;;;;;;;1.77;0.40;;;;;;;;;;513766;28;1711;-83
2022/05/26 00:17:40;;;;;;;1.33;0.50;;;;;;;;;;513893;28;1429;-83
2022/05/26 00:17:56;;;;;;;1.80;0.60;;;;;;;;;;514703;28;1898;-83
2022/05/26 00:18:11;;;;;;;1.67;0.45;;;;;;;;;;515822;28;1404;-83
2022/05/26 00:18:26;;;;;;;1.20;0.40;;;;;;;;;;513867;28;1495;-83
2022/05/26 00:18:43;;;;;;;1.40;0.40;;;;;;;;;;514016;28;1149;-84
2022/05/26 00:18:58;;;;;;;1.10;0.40;;;;;;;;;;511970;29;1513;-84
2022/05/26 00:19:16;;;;;;;1.85;0.47;;;;;;;;;;512637;28;929;-84
2022/05/26 00:19:32;;;;;;;2.28;0.50;;;;;;;;;;515403;28;842;-84
2022/05/26 00:19:48;;;;;;;1.33;0.40;;;;;;;;;;517090;28;1210;-83
2022/05/26 00:20:05;;;;;;;1.02;0.40;;;;;;;;;;513476;28;1203;-83
2022/05/26 00:20:21;;;;;;;2.55;0.47;;;;;;;;;;514015;28;1501;-83
2022/05/26 00:20:36;;;;;;;2.20;0.40;;;;;;;;;;515270;28;1208;-83
2022/05/26 00:20:52;;;;;;;1.77;0.47;;;;;;;;;;513578;28;1202;-83
2022/05/26 00:21:07;;;;;;;1.52;0.43;;;;;;;;;;512096;29;918;-83
2022/05/26 00:21:22;;;;;;;1.20;0.40;;;;;;;;;;513588;28;1290;-83
2022/05/26 00:21:39;;;;;;;1.60;0.40;;;;;;;;;;514291;28;886;-83
2022/05/26 00:21:54;;;;;;;1.13;0.40;;;;;;;;;;514978;28;1645;-83
2022/05/26 00:22:09;;;;;;;2.07;0.47;;;;;;;;;;516282;28;1249;-84
2022/05/26 00:22:25;;;;;;;2.13;0.60;;;;;;;;;;516636;28;1207;-84
2022/05/26 00:22:41;;;;;;;1.95;0.60;;;;;;;;;;518499;28;908;-84
2022/05/26 00:22:56;;;;;;;2.20;0.50;;;;;;;;;;516318;28;1149;-84
2022/05/26 00:23:12;;;;;;;1.40;0.50;;;;;;;;;;514547;28;1599;-84
2022/05/26 00:23:27;;;;;;;1.17;0.50;;;;;;;;;;514692;28;1288;-84
2022/05/26 00:23:42;;;;;;;1.52;0.40;;;;;;;;;;514002;28;1395;-84
2022/05/26 00:23:58;;;;;;;1.53;0.40;;;;;;;;;;513550;28;1724;-84
2022/05/26 00:24:13;;;;;;;1.73;0.50;;;;;;;;;;513577;28;1013;-84
2022/05/26 00:24:29;;;;;;;1.63;0.50;;;;;;;;;;513067;28;997;-84
2022/05/26 00:24:44;;;;;;;1.43;0.50;;;;;;;;;;513412;28;1281;-84
2022/05/26 00:25:00;;;;;;;1.40;0.50;;;;;;;;;;512150;28;1166;-84
2022/05/26 00:25:15;;;;;;;1.47;0.50;;;;;;;;;;514190;28;883;-84
2022/05/26 00:25:31;;;;;;;2.28;0.50;;;;;;;;;;514410;28;1340;-84
2022/05/26 00:25:46;;;;;;;2.50;0.50;;;;;;;;;;517657;28;1765;-84
2022/05/26 00:26:02;;;;;;;1.25;0.50;;;;;;;;;;518190;28;913;-83
2022/05/26 00:26:18;;;;;;;0.88;0.50;;;;;;;;;;516103;28;1221;-83
2022/05/26 00:26:33;;;;;;;1.67;0.50;;;;;;;;;;514240;28;1186;-83
2022/05/26 00:26:49;;;;;;;2.33;0.50;;;;;;;;;;514361;28;791;-83
2022/05/26 00:27:05;;;;;;;2.35;0.50;;;;;;;;;;514077;28;1213;-83
2022/05/26 00:27:20;;;;;;;1.65;0.40;;;;;;;;;;514361;28;1016;-83
2022/05/26 00:27:35;;;;;;;1.60;0.40;;;;;;;;;;512710;28;1338;-83
2022/05/26 00:27:51;;;;;;;2.07;0.50;;;;;;;;;;513281;28;977;-83
2022/05/26 00:28:07;;;;;;;1.97;0.60;;;;;;;;;;512775;28;823;-83
2022/05/26 00:28:22;;;;;;;2.72;0.50;;;;;;;;;;514487;28;1740;-83
2022/05/26 00:28:38;;;;;;;2.70;0.50;;;;;;;;;;516366;28;1752;-83
2022/05/26 00:28:53;;;;;;;2.10;0.40;;;;;;;;;;518225;28;882;-83
2022/05/26 00:29:08;;;;;;;1.53;0.40;;;;;;;;;;518296;28;1016;-83
2022/05/26 00:29:24;;;;;;;1.13;0.40;;;;;;;;;;520458;28;980;-83
2022/05/26 00:29:40;;;;;;;2.00;0.50;;;;;;;;;;520136;28;1176;-83
2022/05/26 00:29:55;;;;;;;2.38;0.55;;;;;;;;;;518443;28;1299;-83
2022/05/26 00:30:11;;;;;;;1.73;0.50;;;;;;;;;;516601;28;1263;-83
2022/05/26 00:30:26;;;;;;;1.33;0.50;;;;;;;;;;516420;28;1259;-83
2022/05/26 00:30:42;;;;;;;1.17;0.40;;;;;;;;;;516327;28;1209;-83
2022/05/26 00:30:58;;;;;;;0.80;0.37;;;;;;;;;;516332;28;1149;-83
2022/05/26 00:31:13;;;;;;;1.27;0.40;;;;;;;;;;516266;28;1196;-83
2022/05/26 00:31:30;;;;;;;1.52;0.50;;;;;;;;;;518214;28;1298;-83
2022/05/26 00:31:46;;;;;;;0.90;0.50;;;;;;;;;;517614;28;913;-83
2022/05/26 00:32:01;;;;;;;0.97;0.40;;;;;;;;;;516710;28;1200;-83
2022/05/26 00:32:17;;;;;;;1.70;0.40;;;;;;;;;;514576;28;1373;-83
2022/05/26 00:32:32;;;;;;;3.10;0.50;;;;;;;;;;514197;28;1001;-83
2022/05/26 00:32:48;;;;;;;3.17;0.47;;;;;;;;;;514215;28;1458;-83
2022/05/26 00:33:05;;;;;;;2.63;0.50;;;;;;;;;;512645;28;1255;-83
2022/05/26 00:33:20;;;;;;;1.85;0.50;;;;;;;;;;512044;29;1448;-83
2022/05/26 00:33:36;;;;;;;1.90;0.50;;;;;;;;;;510233;29;1299;-83
2022/05/26 00:33:51;;;;;;;1.80;0.40;;;;;;;;;;510816;29;916;-84
2022/05/26 00:34:07;;;;;;;1.03;0.40;;;;;;;;;;510794;29;1251;-84
2022/05/26 00:34:22;;;;;;;1.00;0.40;;;;;;;;;;512082;29;1566;-83
2022/05/26 00:34:38;;;;;;;2.20;0.50;;;;;;;;;;514177;28;1427;-83
2022/05/26 00:34:53;;;;;;;1.90;0.40;;;;;;;;;;514149;28;1270;-83
2022/05/26 00:35:09;;;;;;;0.75;0.40;;;;;;;;;;514170;28;1273;-83
2022/05/26 00:35:25;;;;;;;0.70;0.40;;;;;;;;;;514282;28;1118;-83
2022/05/26 00:35:40;;;;;;;1.15;0.47;;;;;;;;;;515295;28;1187;-83
2022/05/26 00:36:12;;;;;;;1.75;0.50;;;;;;;;;;513219;28;1800;-83
2022/05/26 00:36:43;;;;;;;2.15;0.50;;;;;;;;;;514039;28;1423;-83
2022/05/26 00:36:58;;;;;;;2.58;0.57;;;;;;;;;;512513;28;878;-83
2022/05/26 00:37:13;;;;;;;1.92;0.50;;;;;;;;;;515468;28;1288;-83
2022/05/26 00:37:29;;;;;;;2.60;0.50;;;;;;;;;;515540;28;1362;-83
2022/05/26 00:37:45;;;;;;;2.53;0.60;;;;;;;;;;516067;28;1899;-83
2022/05/26 00:38:04;;;;;;;1.23;0.50;;;;;;;;;;517171;28;1550;-83
2022/05/26 00:38:20;;;;;;;1.55;0.43;;;;;;;;;;516039;28;831;-83
2022/05/26 00:38:36;;;;;;;2.13;0.50;;;;;;;;;;514218;28;1273;-83
2022/05/26 00:38:51;;;;;;;2.13;0.52;;;;;;;;;;514275;28;973;-83
2022/05/26 00:39:17;;;;;;;2.00;0.57;;;;;;;;;;515200;28;890;-83
2022/05/26 00:39:32;;;;;;;1.60;0.60;;;;;;;;;;518329;28;1512;-83
2022/05/26 00:39:47;;;;;;;1.40;0.50;;;;;;;;;;518375;28;976;-83
2022/05/26 00:40:03;;;;;;;1.95;0.65;;;;;;;;;;516041;28;1199;-83
2022/05/26 00:40:19;;;;;;;2.33;0.63;;;;;;;;;;514039;28;1426;-83
2022/05/26 00:40:35;;;;;;;2.22;0.60;;;;;;;;;;515604;28;1170;-84
2022/05/26 00:40:50;;;;;;;5.88;0.60;;;;;;;;;;514010;28;1267;-84
2022/05/26 00:41:09;;;;;;;5.90;0.60;;;;;;;;;;513945;28;1131;-84
2022/05/26 00:41:27;;;;;;;2.25;0.60;;;;;;;;;;512364;28;1174;-84
2022/05/26 00:41:46;;;;;;;2.10;0.50;;;;;;;;;;514313;28;981;-84
2022/05/26 00:42:05;;;;;;;2.17;0.40;;;;;;;;;;513169;28;1340;-83
2022/05/26 00:42:20;;;;;;;2.78;0.43;;;;;;;;;;513284;28;1399;-83
2022/05/26 00:42:39;;;;;;;2.80;0.50;;;;;;;;;;515841;28;1218;-83
2022/05/26 00:42:55;;;;;;;1.50;0.50;;;;;;;;;;516068;28;1166;-83
2022/05/26 00:43:11;;;;;;;1.50;0.50;;;;;;;;;;514127;28;1467;-83
2022/05/26 00:43:26;;;;;;;2.13;0.50;;;;;;;;;;515551;28;1347;-83
2022/05/26 00:43:44;;;;;;;2.88;0.57;;;;;;;;;;516007;28;1182;-83
2022/05/26 00:43:59;;;;;;;2.25;0.50;;;;;;;;;;516705;28;1453;-83
2022/05/26 00:44:15;;;;;;;2.53;0.70;;;;;;;;;;516134;28;1273;-83
2022/05/26 00:44:33;;;;;;;2.63;0.70;;;;;;;;;;516222;28;934;-83
2022/05/26 00:44:50;;;;;;;2.65;0.50;;;;;;;;;;515916;28;1049;-83
2022/05/26 00:45:07;;;;;;;1.60;0.47;;;;;;;;;;515346;28;1270;-83
2022/05/26 00:45:23;;;;;;;1.17;0.50;;;;;;;;;;516077;28;1358;-83
2022/05/26 00:45:53;;;;;;;1.13;0.40;;;;;;;;;;515729;28;1274;-83
2022/05/26 00:46:22;;;;;;;1.90;0.50;;;;;;;;;;516768;28;1382;-83
2022/05/26 00:46:44;;;;;;;1.70;0.40;;;;;;;;;;517055;28;1147;-83
2022/05/26 00:47:02;;;;;;;1.75;0.60;;;;;;;;;;518225;28;1256;-83
2022/05/26 00:47:21;;;;;;;1.80;0.50;;;;;;;;;;516805;28;1317;-83
2022/05/26 00:47:44;;;;;;;2.00;0.50;;;;;;;;;;518304;28;1528;-83
2022/05/26 00:48:00;;;;;;;1.70;0.57;;;;;;;;;;517629;28;1242;-83
2022/05/26 00:48:20;;;;;;;1.55;0.55;;;;;;;;;;516241;28;1364;-83
2022/05/26 00:48:50;;;;;;;2.17;0.52;;;;;;;;;;516684;28;1016;-83
2022/05/26 00:49:09;;;;;;;3.95;0.60;;;;;;;;;;516076;28;1184;-83
2022/05/26 00:49:46;;;;;;;2.47;0.50;;;;;;;;;;514885;28;1238;-83
2022/05/26 00:50:07;;;;;;;1.90;0.50;;;;;;;;;;517350;28;862;-83
2022/05/26 00:50:29;;;;;;;1.25;0.50;;;;;;;;;;515290;28;1468;-84
2022/05/26 00:50:48;;;;;;;1.40;0.50;;;;;;;;;;514717;28;1328;-84
2022/05/26 00:51:04;;;;;;;1.38;0.50;;;;;;;;;;515574;28;1520;-83
2022/05/26 00:51:28;;;;;;;1.65;0.40;;;;;;;;;;516036;28;1355;-83
2022/05/26 00:51:45;;;;;;;1.85;0.50;;;;;;;;;;513367;28;1637;-83
2022/05/26 00:52:02;;;;;;;3.22;0.60;;;;;;;;;;512899;28;1633;-83
2022/05/26 00:52:32;;;;;;;3.03;0.55;;;;;;;;;;513765;28;1395;-83
2022/05/26 00:52:54;;;;;;;1.42;0.40;;;;;;;;;;512586;28;1171;-83
2022/05/26 00:53:37;;;;;;;1.60;0.40;;;;;;;;;;516886;28;1423;-83
2022/05/26 00:53:55;;;;;;;2.08;0.50;;;;;;;;;;516985;28;1060;-83
2022/05/26 00:54:18;;;;;;;2.20;0.45;;;;;;;;;;517123;28;1339;-84
2022/05/26 00:54:33;;;;;;;3.60;0.50;;;;;;;;;;516109;28;822;-84
2022/05/26 00:54:52;;;;;;;1.80;0.47;;;;;;;;;;514078;28;1251;-84
2022/05/26 00:55:13;;;;;;;1.75;0.57;;;;;;;;;;514151;28;978;-84
2022/05/26 00:55:38;;;;;;;2.38;0.70;;;;;;;;;;511667;29;1334;-84
2022/05/26 00:55:58;;;;;;;2.33;0.50;;;;;;;;;;512046;29;949;-84
2022/05/26 00:56:32;;;;;;;1.55;0.50;;;;;;;;;;513800;28;1286;-84
2022/05/26 00:56:57;;;;;;;1.50;0.52;;;;;;;;;;515751;28;1440;-84
2022/05/26 00:58:14;;;;;;;1.30;0.50;;;;;;;;;;514170;28;886;-84
2022/05/26 00:58:36;;;;;;;0.93;0.50;;;;;;;;;;510008;29;903;-83
2022/05/26 00:58:59;;;;;;;0.68;0.40;;;;;;;;;;511869;29;1038;-83
2022/05/26 00:59:44;;;;;;;1.50;0.50;;;;;;;;;;513538;28;915;-83
2022/05/26 01:00:03;;;;;;;1.30;0.40;;;;;;;;;;513944;28;1096;-84
2022/05/26 01:00:22;;;;;;;1.23;0.50;;;;;;;;;;511965;29;1328;-84
2022/05/26 01:00:38;;;;;;;2.72;0.50;;;;;;;;;;512069;29;1131;-84
2022/05/26 01:00:57;;;;;;;2.75;0.50;;;;;;;;;;511996;29;882;-84
2022/05/26 01:01:13;;;;;;;1.80;0.45;;;;;;;;;;513305;28;1392;-83
2022/05/26 01:01:29;;;;;;;2.23;0.50;;;;;;;;;;513782;28;850;-83
2022/05/26 01:01:45;;;;;;;1.83;0.50;;;;;;;;;;511671;29;1296;-83
2022/05/26 01:02:01;;;;;;;1.00;0.40;;;;;;;;;;511780;29;1455;-83
2022/05/26 01:02:22;;;;;;;1.43;0.43;;;;;;;;;;512047;29;1230;-83
2022/05/26 01:02:43;;;;;;;1.38;0.43;;;;;;;;;;510151;29;1353;-83
2022/05/26 01:03:27;;;;;;;1.50;0.55;;;;;;;;;;510148;29;1416;-83
2022/05/26 01:03:45;;;;;;;2.53;0.57;;;;;;;;;;511698;29;1378;-83
2022/05/26 01:04:07;;;;;;;2.45;0.55;;;;;;;;;;510515;29;910;-83
2022/05/26 01:04:25;;;;;;;2.67;0.50;;;;;;;;;;512345;28;930;-83
2022/05/26 01:04:49;;;;;;;1.08;0.38;;;;;;;;;;518356;28;957;-83
2022/05/26 01:05:12;;;;;;;1.70;0.50;;;;;;;;;;518307;28;1087;-84
2022/05/26 01:05:37;;;;;;;0.82;0.38;;;;;;;;;;516273;28;886;-84
2022/05/26 01:06:03;;;;;;;1.45;0.40;;;;;;;;;;514181;28;1352;-84
2022/05/26 01:06:33;;;;;;;1.52;0.52;;;;;;;;;;513431;28;1339;-84
2022/05/26 01:06:59;;;;;;;1.95;0.50;;;;;;;;;;514309;28;1205;-84
2022/05/26 01:07:26;;;;;;;1.13;0.47;;;;;;;;;;514147;28;1334;-84
2022/05/26 01:07:41;;;;;;;1.33;0.43;;;;;;;;;;514381;28;1024;-84
2022/05/26 01:07:57;;;;;;;2.00;0.40;;;;;;;;;;518029;28;1072;-84
2022/05/26 01:08:22;;;;;;;2.00;0.50;;;;;;;;;;518036;28;898;-84
2022/05/26 01:08:47;;;;;;;2.05;0.43;;;;;;;;;;518593;28;1052;-84
2022/05/26 01:09:05;;;;;;;3.03;0.60;;;;;;;;;;518066;28;1232;-83
2022/05/26 01:09:20;;;;;;;2.72;0.60;;;;;;;;;;518125;28;1222;-83
2022/05/26 01:09:36;;;;;;;1.48;0.50;;;;;;;;;;520015;28;988;-84
2022/05/26 01:09:51;;;;;;;2.03;0.50;;;;;;;;;;522161;28;889;-84
2022/05/26 01:10:10;;;;;;;2.30;0.40;;;;;;;;;;521592;28;1136;-84
2022/05/26 01:10:25;;;;;;;0.90;0.40;;;;;;;;;;518348;28;1168;-84
2022/05/26 01:10:41;;;;;;;1.52;0.45;;;;;;;;;;518208;28;887;-84
2022/05/26 01:10:56;;;;;;;2.13;0.50;;;;;;;;;;517984;28;1229;-84
2022/05/26 01:11:12;;;;;;;1.55;0.50;;;;;;;;;;517888;28;1280;-83
2022/05/26 01:11:30;;;;;;;1.00;0.40;;;;;;;;;;515853;28;1129;-83
2022/05/26 01:11:46;;;;;;;0.85;0.38;;;;;;;;;;516329;28;1064;-83
2022/05/26 01:12:02;;;;;;;1.88;0.50;;;;;;;;;;518070;28;995;-84
2022/05/26 01:12:17;;;;;;;2.53;0.53;;;;;;;;;;515987;28;1191;-84
2022/05/26 01:12:33;;;;;;;2.35;0.50;;;;;;;;;;517733;28;1306;-84
2022/05/26 01:12:48;;;;;;;2.03;0.50;;;;;;;;;;517879;28;1249;-84
2022/05/26 01:13:04;;;;;;;1.90;0.50;;;;;;;;;;518159;28;1052;-84
2022/05/26 01:13:21;;;;;;;1.10;0.40;;;;;;;;;;518037;28;1323;-84
2022/05/26 01:13:42;;;;;;;1.92;0.40;;;;;;;;;;516083;28;1473;-84
2022/05/26 01:14:06;;;;;;;1.67;0.40;;;;;;;;;;517885;28;1805;-84
2022/05/26 01:14:29;;;;;;;1.20;0.43;;;;;;;;;;520023;28;1996;-84
2022/05/26 01:14:52;;;;;;;1.35;0.50;;;;;;;;;;520059;28;834;-83
2022/05/26 01:15:17;;;;;;;1.90;0.50;;;;;;;;;;520350;28;1071;-84
2022/05/26 01:15:36;;;;;;;1.90;0.50;;;;;;;;;;522146;28;917;-83
2022/05/26 01:16:19;;;;;;;1.88;0.40;;;;;;;;;;523246;28;920;-83
2022/05/26 01:16:46;;;;;;;2.15;0.45;;;;;;;;;;524249;28;1522;-83
2022/05/26 01:17:13;;;;;;;2.45;0.60;;;;;;;;;;522273;28;1301;-83
2022/05/26 01:17:37;;;;;;;1.92;0.47;;;;;;;;;;520080;28;1259;-83
2022/05/26 01:18:11;;;;;;;2.55;0.60;;;;;;;;;;519980;28;1962;-83
2022/05/26 01:18:52;;;;;;;3.97;0.50;;;;;;;;;;520227;28;853;-83
2022/05/26 01:19:25;;;;;;;1.50;0.52;;;;;;;;;;519254;28;1454;-82
2022/05/26 01:20:18;;;;;;;0.90;0.40;;;;;;;;;;524204;28;1342;-82
2022/05/26 01:20:55;;;;;;;2.85;0.40;;;;;;;;;;519953;28;1283;-82
2022/05/26 01:21:45;;;;;;;2.20;0.40;;;;;;;;;;520065;28;1330;-82
2022/05/26 01:22:40;;;;;;;2.05;0.60;;;;;;;;;;514244;28;1660;-84
2022/05/26 01:23:24;;;;;;;1.77;0.50;;;;;;;;;;522513;28;1346;-82
2022/05/26 01:24:13;;;;;;;1.73;0.43;;;;;;;;;;522504;28;869;-82
2022/05/26 01:24:51;;;;;;;2.13;0.50;;;;;;;;;;522965;28;1436;-82
2022/05/26 01:25:18;;;;;;;1.85;0.50;;;;;;;;;;523694;28;1532;-82
2022/05/26 01:25:53;;;;;;;1.80;0.40;;;;;;;;;;524251;28;999;-82
2022/05/26 01:26:24;;;;;;;1.60;0.57;;;;;;;;;;521972;28;1591;-82
2022/05/26 01:26:52;;;;;;;1.15;0.40;;;;;;;;;;521507;28;1367;-82
2022/05/26 01:27:30;;;;;;;1.25;0.45;;;;;;;;;;520159;28;1314;-82
2022/05/26 01:28:01;;;;;;;0.73;0.38;;;;;;;;;;518305;28;965;-82
2022/05/26 01:28:44;;;;;;;1.40;0.50;;;;;;;;;;520144;28;1442;-82
2022/05/26 01:29:36;;;;;;;1.67;0.40;;;;;;;;;;520751;28;1584;-82
2022/05/26 01:30:09;;;;;;;1.48;0.35;;;;;;;;;;523901;28;928;-82
2022/05/26 01:30:59;;;;;;;1.17;0.40;;;;;;;;;;522415;28;1122;-82
2022/05/26 01:31:35;;;;;;;1.67;0.45;;;;;;;;;;510076;29;1655;-82
2022/05/26 01:32:10;;;;;;;2.13;0.60;;;;;;;;;;521751;28;1478;-82
2022/05/26 01:32:41;;;;;;;2.25;0.60;;;;;;;;;;518554;28;1296;-82
2022/05/26 01:33:02;;;;;;;1.15;0.50;;;;;;;;;;517821;28;1569;-82
2022/05/26 01:33:46;;;;;;;1.67;0.50;;;;;;;;;;520233;28;1486;-82
2022/05/26 01:34:17;;;;;;;1.85;0.50;;;;;;;;;;518304;28;1289;-82
2022/05/26 01:34:57;;;;;;;1.50;0.40;;;;;;;;;;522222;28;936;-82
2022/05/26 01:35:23;;;;;;;2.75;0.70;;;;;;;;;;523712;28;884;-82
2022/05/26 01:35:50;;;;;;;1.67;0.60;;;;;;;;;;522372;28;1547;-82
2022/05/26 01:36:31;;;;;;;1.40;0.50;;;;;;;;;;524353;28;1338;-82
2022/05/26 01:37:04;;;;;;;3.40;0.50;;;;;;;;;;523786;28;987;-82
2022/05/26 01:37:26;;;;;;;2.10;0.32;;;;;;;;;;522141;28;1242;-82
2022/05/26 01:38:08;;;;;;;1.77;0.30;;;;;;;;;;518069;28;1252;-82
2022/05/26 01:38:37;;;;;;;2.42;0.45;;;;;;;;;;519963;28;1262;-82
2022/05/26 01:39:07;;;;;;;0.88;0.40;;;;;;;;;;520143;28;916;-82
2022/05/26 01:39:37;;;;;;;2.03;0.50;;;;;;;;;;521002;28;1480;-82
2022/05/26 01:40:10;;;;;;;2.60;0.50;;;;;;;;;;520080;28;1311;-82
2022/05/26 01:40:41;;;;;;;0.88;0.40;;;;;;;;;;519330;28;1726;-82
2022/05/26 01:41:07;;;;;;;1.00;0.40;;;;;;;;;;519671;28;1044;-82
2022/05/26 01:41:44;;;;;;;1.70;0.50;;;;;;;;;;522009;28;945;-82
2022/05/26 01:42:32;;;;;;;1.70;0.50;;;;;;;;;;522411;28;869;-82
2022/05/26 01:43:04;;;;;;;2.40;0.40;;;;;;;;;;514157;28;1378;-82
2022/05/26 01:43:28;;;;;;;1.25;0.40;;;;;;;;;;514279;28;1339;-82
2022/05/26 01:43:50;;;;;;;1.65;0.50;;;;;;;;;;514064;28;1444;-82
2022/05/26 01:44:28;;;;;;;1.77;0.57;;;;;;;;;;511981;29;1365;-82
2022/05/26 01:45:01;;;;;;;2.45;0.50;;;;;;;;;;514663;28;1053;-82
2022/05/26 01:45:39;;;;;;;2.42;0.45;;;;;;;;;;519707;28;1008;-82
2022/05/26 01:46:08;;;;;;;1.15;0.43;;;;;;;;;;518240;28;1220;-82
2022/05/26 01:46:33;;;;;;;1.25;0.40;;;;;;;;;;518415;28;1035;-82
2022/05/26 01:46:50;;;;;;;1.77;0.50;;;;;;;;;;520157;28;1224;-82
2022/05/26 01:47:14;;;;;;;2.05;0.50;;;;;;;;;;518486;28;1358;-82
2022/05/26 01:47:58;;;;;;;2.38;0.45;;;;;;;;;;520239;28;1354;-82
2022/05/26 01:48:15;;;;;;;2.10;0.50;;;;;;;;;;524224;28;1686;-82
2022/05/26 01:48:51;;;;;;;1.20;0.40;;;;;;;;;;522179;28;1679;-82
2022/05/26 01:49:30;;;;;;;1.65;0.45;;;;;;;;;;520256;28;1457;-82
2022/05/26 01:49:53;;;;;;;2.20;0.40;;;;;;;;;;518157;28;1331;-82
2022/05/26 01:50:23;;;;;;;1.33;0.32;;;;;;;;;;519259;28;1243;-82
2022/05/26 01:50:49;;;;;;;2.40;0.50;;;;;;;;;;520310;28;885;-82
2022/05/26 01:51:37;;;;;;;4.65;0.43;;;;;;;;;;519738;28;1374;-82
2022/05/26 01:52:12;;;;;;;1.15;0.30;;;;;;;;;;520158;28;1087;-82
2022/05/26 01:52:35;;;;;;;2.20;0.50;;;;;;;;;;520689;28;1516;-82
2022/05/26 01:53:06;;;;;;;1.75;0.40;;;;;;;;;;524347;28;861;-82
2022/05/26 01:53:24;;;;;;;2.28;0.50;;;;;;;;;;521951;28;1557;-82
2022/05/26 01:54:25;;;;;;;2.80;0.40;;;;;;;;;;522565;28;1003;-82
2022/05/26 01:55:17;;;;;;;2.55;0.30;;;;;;;;;;522268;28;1302;-82
2022/05/26 01:55:43;;;;;;;1.48;0.40;;;;;;;;;;521232;28;1602;-82
2022/05/26 01:56:11;;;;;;;1.52;0.30;;;;;;;;;;524019;28;1426;-82
2022/05/26 01:56:36;;;;;;;1.33;0.40;;;;;;;;;;519970;28;1596;-82
2022/05/26 01:57:15;;;;;;;2.25;0.50;;;;;;;;;;520024;28;1494;-82
2022/05/26 01:57:50;;;;;;;1.83;0.50;;;;;;;;;;520427;28;1043;-82
2022/05/26 01:58:13;;;;;;;1.48;0.40;;;;;;;;;;520191;28;1694;-82
2022/05/26 01:58:37;;;;;;;1.20;0.50;;;;;;;;;;520365;28;1510;-82
2022/05/26 01:59:00;;;;;;;1.92;0.40;;;;;;;;;;520305;28;1351;-82
2022/05/26 01:59:30;;;;;;;2.10;0.40;;;;;;;;;;520229;28;1474;-82
2022/05/26 01:59:45;;;;;;;1.65;0.40;;;;;;;;;;520297;28;1123;-82
2022/05/26 02:00:06;;;;;;;1.77;0.50;;;;;;;;;;521611;28;1031;-82
2022/05/26 02:00:22;;;;;;;2.10;0.40;;;;;;;;;;523110;28;1082;-82
2022/05/26 02:00:37;;;;;;;2.97;0.50;;;;;;;;;;522188;28;1186;-82
2022/05/26 02:00:55;;;;;;;2.45;0.45;;;;;;;;;;522114;28;1339;-82
2022/05/26 02:01:27;;;;;;;1.15;0.38;;;;;;;;;;522132;28;963;-82
2022/05/26 02:01:47;;;;;;;2.72;0.50;;;;;;;;;;520127;28;1349;-82
2022/05/26 02:02:07;;;;;;;2.28;0.50;;;;;;;;;;517994;28;1221;-82
2022/05/26 02:02:30;;;;;;;2.88;0.50;;;;;;;;;;518056;28;1282;-82
2022/05/26 02:03:01;;;;;;;1.60;0.47;;;;;;;;;;519056;28;1228;-82
2022/05/26 02:03:20;;;;;;;0.77;0.40;;;;;;;;;;522142;28;1612;-82
2022/05/26 02:03:38;;;;;;;1.08;0.40;;;;;;;;;;522209;28;1134;-82
2022/05/26 02:03:56;;;;;;;2.08;0.43;;;;;;;;;;520703;28;1341;-82
2022/05/26 02:04:21;;;;;;;1.83;0.50;;;;;;;;;;521985;28;1219;-82
2022/05/26 02:04:40;;;;;;;1.73;0.40;;;;;;;;;;520754;28;917;-82
2022/05/26 02:05:04;;;;;;;2.25;0.50;;;;;;;;;;522104;28;960;-82
2022/05/26 02:05:27;;;;;;;2.03;0.40;;;;;;;;;;522256;28;1032;-82
2022/05/26 02:05:51;;;;;;;1.83;0.40;;;;;;;;;;522375;28;952;-82
2022/05/26 02:06:13;;;;;;;1.95;0.40;;;;;;;;;;521290;28;1250;-82
2022/05/26 02:06:32;;;;;;;1.90;0.40;;;;;;;;;;522398;28;888;-82
2022/05/26 02:06:58;;;;;;;1.35;0.40;;;;;;;;;;522229;28;1271;-82
2022/05/26 02:07:18;;;;;;;2.63;0.60;;;;;;;;;;520171;28;1246;-82
2022/05/26 02:07:51;;;;;;;1.80;0.43;;;;;;;;;;518221;28;1398;-82
2022/05/26 02:08:11;;;;;;;2.35;0.50;;;;;;;;;;518515;28;1079;-82
2022/05/26 02:08:33;;;;;;;1.30;0.45;;;;;;;;;;519797;28;866;-82
2022/05/26 02:08:55;;;;;;;1.67;0.40;;;;;;;;;;517973;28;1765;-82
2022/05/26 02:09:15;;;;;;;1.48;0.40;;;;;;;;;;519039;28;1785;-82
2022/05/26 02:09:38;;;;;;;0.93;0.40;;;;;;;;;;517631;28;1391;-82
2022/05/26 02:09:57;;;;;;;0.70;0.30;;;;;;;;;;518190;28;956;-82
2022/05/26 02:10:21;;;;;;;1.10;0.40;;;;;;;;;;516058;28;1379;-82
2022/05/26 02:10:44;;;;;;;2.35;0.43;;;;;;;;;;516876;28;1637;-82
2022/05/26 02:11:10;;;;;;;2.53;0.40;;;;;;;;;;518022;28;1261;-82
2022/05/26 02:11:26;;;;;;;1.88;0.40;;;;;;;;;;518119;28;988;-82
2022/05/26 02:11:54;;;;;;;2.30;0.40;;;;;;;;;;518481;28;882;-82
2022/05/26 02:12:19;;;;;;;2.10;0.55;;;;;;;;;;521372;28;1076;-82
2022/05/26 02:12:41;;;;;;;1.48;0.45;;;;;;;;;;522066;28;1227;-82
2022/05/26 02:13:05;;;;;;;1.23;0.40;;;;;;;;;;520345;28;1510;-82
2022/05/26 02:13:44;;;;;;;1.83;0.50;;;;;;;;;;519993;28;1377;-82
2022/05/26 02:14:11;;;;;;;1.27;0.40;;;;;;;;;;518349;28;1596;-82
2022/05/26 02:14:32;;;;;;;1.30;0.40;;;;;;;;;;520897;28;1007;-82
2022/05/26 02:14:54;;;;;;;1.13;0.40;;;;;;;;;;519913;28;1458;-82
2022/05/26 02:15:17;;;;;;;2.10;0.50;;;;;;;;;;518468;28;1561;-82
2022/05/26 02:15:32;;;;;;;1.13;0.40;;;;;;;;;;520061;28;1031;-82
2022/05/26 02:15:53;;;;;;;1.17;0.40;;;;;;;;;;517970;28;1188;-82